Okawville, IL (62271)

6:27 PM CST on February 05, 2016 (GMT -0600)
Firehouse | | Change Station
CLOSE
Current Station
Personal Weather Station
Location: Germantown, IL
Elevation: 436 ft
Nearby Weather Stations

Elev 436 ft 38.55 °N, 89.54 °W | Updated 7 minutes ago

Clear
Clear
35.9 °F
Feels Like 36 °F
N
3.0
Wind Variable Wind from NE
Gusts 5.0 mph

Today
High -- | Low -- °F
--% Chance of Precip.
Yesterday
High -- | Low -- °F
Precip. -- in
Pressure 30.39 in
Visibility 10.0 miles
Clouds Clear
Windchill 36 °F
Dew Point 23 °F
Humidity 61%
Rainfall 0.00 in
Snow Depth Not available.
7:00 AM 5:24 PM
Waning Crescent, 8% visible
METAR KBLV 052358Z AUTO 06004KT 10SM CLR 02/M07 A3036 RMK AO2 SLP289 T00221066 10062 20022 55005 $
Pressure 30.39 in
Visibility 10.0 miles
Clouds Clear
Windchill 36 °F
Dew Point 23 °F
Humidity 61%
Rainfall 0.00 in
Snow Depth Not available.
7:00 AM 5:24 PM
Waning Crescent, 8% visible
METAR KBLV 052358Z AUTO 06004KT 10SM CLR 02/M07 A3036 RMK AO2 SLP289 T00221066 10062 20022 55005 $

10-Day Weather Forecast

Almanac

Astronomy

Feb. 05, 2016 Rise Set
Actual Time
Civil Twilight
Nautical Twilight
Astronomical Twilight
Moon
Length of Visible Light
Length of Day
Tomorrow will be .
, % of the Moon is Illuminated

Today's Extremes

State Highs State Lows

Community

WunderPhotos

Upload Photos

1,890,897 photos uploaded!

WunderBlog® & News

Nearby

Air Quality

  Air Quality AQ Index Pollutant
Not available.

Snow Depth

Station Depth Elevation

Earthquake Activity

City Distance Mag. Time & Date
Minimum magnitude displayed is 2.5.

Coastal Water Temperatures

Place Temperature

Stations

Nearby Weather Stations

Station Location Temp. Windchill Dew Point Humidity Wind Precip. Elev Updated Type
                   

Watches & Warnings

There are currently no watches in effect.